sensor_id;sensor_type;location;lat;lon;timestamp;temperature;humidity
4487;DHT22;2256;48.740;9.106;2023-12-29T00:01:35;8.30;99.90
4487;DHT22;2256;48.740;9.106;2023-12-29T00:04:03;8.30;99.90
4487;DHT22;2256;48.740;9.106;2023-12-29T00:06:30;8.50;99.90
4487;DHT22;2256;48.740;9.106;2023-12-29T00:08:57;8.50;99.90
4487;DHT22;2256;48.740;9.106;2023-12-29T00:11:25;8.50;99.90
4487;DHT22;2256;48.740;9.106;2023-12-29T00:13:52;8.50;99.90
4487;DHT22;2256;48.740;9.106;2023-12-29T00:16:18;8.50;99.90
4487;DHT22;2256;48.740;9.106;2023-12-29T00:18:45;8.60;99.90
4487;DHT22;2256;48.740;9.106;2023-12-29T00:21:13;8.60;99.90
4487;DHT22;2256;48.740;9.106;2023-12-29T00:23:40;8.50;99.90
4487;DHT22;2256;48.740;9.106;2023-12-29T00:26:07;8.50;99.90
4487;DHT22;2256;48.740;9.106;2023-12-29T00:28:34;8.50;99.90
4487;DHT22;2256;48.740;9.106;2023-12-29T00:31:02;8.50;99.90
4487;DHT22;2256;48.740;9.106;2023-12-29T00:33:30;8.40;99.90
4487;DHT22;2256;48.740;9.106;2023-12-29T00:35:57;8.40;99.90
4487;DHT22;2256;48.740;9.106;2023-12-29T00:38:26;8.20;99.90
4487;DHT22;2256;48.740;9.106;2023-12-29T00:40:54;8.20;99.90
4487;DHT22;2256;48.740;9.106;2023-12-29T00:43:21;8.30;99.90
4487;DHT22;2256;48.740;9.106;2023-12-29T00:45:49;8.40;99.90
4487;DHT22;2256;48.740;9.106;2023-12-29T00:48:16;8.30;99.90
4487;DHT22;2256;48.740;9.106;2023-12-29T00:50:43;8.50;99.90
4487;DHT22;2256;48.740;9.106;2023-12-29T00:53:09;8.50;99.90
4487;DHT22;2256;48.740;9.106;2023-12-29T00:55:37;8.50;99.90
4487;DHT22;2256;48.740;9.106;2023-12-29T00:58:04;8.50;99.90
4487;DHT22;2256;48.740;9.106;2023-12-29T01:00:31;8.60;99.90
4487;DHT22;2256;48.740;9.106;2023-12-29T01:02:58;8.60;99.90
4487;DHT22;2256;48.740;9.106;2023-12-29T01:05:24;8.70;99.90
4487;DHT22;2256;48.740;9.106;2023-12-29T01:07:53;8.70;99.90
4487;DHT22;2256;48.740;9.106;2023-12-29T01:10:20;8.70;99.90
4487;DHT22;2256;48.740;9.106;2023-12-29T01:12:48;8.70;99.90
4487;DHT22;2256;48.740;9.106;2023-12-29T01:15:15;8.80;99.90
4487;DHT22;2256;48.740;9.106;2023-12-29T01:17:41;8.80;99.90
4487;DHT22;2256;48.740;9.106;2023-12-29T01:20:09;8.80;99.90
4487;DHT22;2256;48.740;9.106;2023-12-29T01:22:36;8.90;99.90
4487;DHT22;2256;48.740;9.106;2023-12-29T01:25:03;8.90;99.90
4487;DHT22;2256;48.740;9.106;2023-12-29T01:27:30;8.70;99.90
4487;DHT22;2256;48.740;9.106;2023-12-29T01:29:58;8.60;99.90
4487;DHT22;2256;48.740;9.106;2023-12-29T01:32:25;8.70;99.90
4487;DHT22;2256;48.740;9.106;2023-12-29T01:34:52;8.70;99.90
4487;DHT22;2256;48.740;9.106;2023-12-29T01:37:20;8.70;99.90
4487;DHT22;2256;48.740;9.106;2023-12-29T01:39:48;8.70;99.90
4487;DHT22;2256;48.740;9.106;2023-12-29T01:42:15;8.70;99.90
4487;DHT22;2256;48.740;9.106;2023-12-29T01:44:42;8.70;99.90
4487;DHT22;2256;48.740;9.106;2023-12-29T01:47:14;8.70;99.90
4487;DHT22;2256;48.740;9.106;2023-12-29T01:49:44;8.80;99.90
4487;DHT22;2256;48.740;9.106;2023-12-29T01:52:11;8.90;99.90
4487;DHT22;2256;48.740;9.106;2023-12-29T01:54:39;8.90;99.90
4487;DHT22;2256;48.740;9.106;2023-12-29T01:57:08;9.00;99.90
4487;DHT22;2256;48.740;9.106;2023-12-29T01:59:35;9.00;99.90
4487;DHT22;2256;48.740;9.106;2023-12-29T02:02:03;9.00;99.90
4487;DHT22;2256;48.740;9.106;2023-12-29T02:04:32;9.00;99.90
4487;DHT22;2256;48.740;9.106;2023-12-29T02:06:59;8.90;99.90
4487;DHT22;2256;48.740;9.106;2023-12-29T02:09:26;8.90;99.90
4487;DHT22;2256;48.740;9.106;2023-12-29T02:11:54;8.80;99.90
4487;DHT22;2256;48.740;9.106;2023-12-29T02:14:21;8.80;99.90
4487;DHT22;2256;48.740;9.106;2023-12-29T02:16:55;8.90;99.90
4487;DHT22;2256;48.740;9.106;2023-12-29T02:19:37;8.90;99.90
4487;DHT22;2256;48.740;9.106;2023-12-29T02:22:07;8.90;99.90
4487;DHT22;2256;48.740;9.106;2023-12-29T02:24:34;9.00;99.90
4487;DHT22;2256;48.740;9.106;2023-12-29T02:27:11;8.90;99.90
4487;DHT22;2256;48.740;9.106;2023-12-29T02:29:41;9.00;99.90
4487;DHT22;2256;48.740;9.106;2023-12-29T02:32:14;8.90;99.90
4487;DHT22;2256;48.740;9.106;2023-12-29T02:34:44;9.00;99.90
4487;DHT22;2256;48.740;9.106;2023-12-29T02:37:12;8.90;99.90
4487;DHT22;2256;48.740;9.106;2023-12-29T02:39:39;8.90;99.90
4487;DHT22;2256;48.740;9.106;2023-12-29T02:42:07;8.90;99.90
4487;DHT22;2256;48.740;9.106;2023-12-29T02:44:34;8.90;99.90
4487;DHT22;2256;48.740;9.106;2023-12-29T02:47:01;8.90;99.90
4487;DHT22;2256;48.740;9.106;2023-12-29T02:49:29;8.80;99.90
4487;DHT22;2256;48.740;9.106;2023-12-29T02:51:56;8.80;99.90
4487;DHT22;2256;48.740;9.106;2023-12-29T02:54:23;8.70;99.90
4487;DHT22;2256;48.740;9.106;2023-12-29T02:56:49;8.70;99.90
4487;DHT22;2256;48.740;9.106;2023-12-29T02:59:17;8.60;99.90
4487;DHT22;2256;48.740;9.106;2023-12-29T03:01:45;8.60;99.90
4487;DHT22;2256;48.740;9.106;2023-12-29T03:04:12;8.60;99.90
4487;DHT22;2256;48.740;9.106;2023-12-29T03:06:40;8.50;99.90
4487;DHT22;2256;48.740;9.106;2023-12-29T03:09:06;8.50;99.90
4487;DHT22;2256;48.740;9.106;2023-12-29T03:11:34;8.60;99.90
4487;DHT22;2256;48.740;9.106;2023-12-29T03:14:01;8.60;99.90
4487;DHT22;2256;48.740;9.106;2023-12-29T03:16:29;8.70;99.90
4487;DHT22;2256;48.740;9.106;2023-12-29T03:18:56;8.60;99.90
4487;DHT22;2256;48.740;9.106;2023-12-29T03:21:23;8.60;99.90
4487;DHT22;2256;48.740;9.106;2023-12-29T03:23:49;8.50;99.90
4487;DHT22;2256;48.740;9.106;2023-12-29T03:26:16;8.50;99.90
4487;DHT22;2256;48.740;9.106;2023-12-29T03:28:45;8.50;99.90
4487;DHT22;2256;48.740;9.106;2023-12-29T03:31:12;8.50;99.90
4487;DHT22;2256;48.740;9.106;2023-12-29T03:33:40;8.50;99.90
4487;DHT22;2256;48.740;9.106;2023-12-29T03:36:08;8.40;99.90
4487;DHT22;2256;48.740;9.106;2023-12-29T03:38:35;8.50;99.90
4487;DHT22;2256;48.740;9.106;2023-12-29T03:41:02;8.40;99.90
4487;DHT22;2256;48.740;9.106;2023-12-29T03:43:29;8.30;99.90
4487;DHT22;2256;48.740;9.106;2023-12-29T03:45:56;8.10;99.90
4487;DHT22;2256;48.740;9.106;2023-12-29T03:48:24;8.10;99.90
4487;DHT22;2256;48.740;9.106;2023-12-29T03:50:52;8.00;99.90
4487;DHT22;2256;48.740;9.106;2023-12-29T03:53:19;8.00;99.90
4487;DHT22;2256;48.740;9.106;2023-12-29T03:55:45;7.90;99.90
4487;DHT22;2256;48.740;9.106;2023-12-29T03:58:12;7.90;99.90
4487;DHT22;2256;48.740;9.106;2023-12-29T04:00:39;8.00;99.90
4487;DHT22;2256;48.740;9.106;2023-12-29T04:03:08;7.90;99.90
4487;DHT22;2256;48.740;9.106;2023-12-29T04:05:35;7.80;99.90
4487;DHT22;2256;48.740;9.106;2023-12-29T04:08:03;8.00;99.90
4487;DHT22;2256;48.740;9.106;2023-12-29T04:10:30;7.90;99.90
4487;DHT22;2256;48.740;9.106;2023-12-29T04:12:57;7.90;99.90
4487;DHT22;2256;48.740;9.106;2023-12-29T04:15:23;7.90;99.90
4487;DHT22;2256;48.740;9.106;2023-12-29T04:17:50;7.90;99.90
4487;DHT22;2256;48.740;9.106;2023-12-29T04:20:17;7.80;99.90
4487;DHT22;2256;48.740;9.106;2023-12-29T04:22:44;7.80;99.90
4487;DHT22;2256;48.740;9.106;2023-12-29T04:25:12;7.70;99.90
4487;DHT22;2256;48.740;9.106;2023-12-29T04:27:39;7.80;99.90
4487;DHT22;2256;48.740;9.106;2023-12-29T04:30:07;7.90;99.90
4487;DHT22;2256;48.740;9.106;2023-12-29T04:32:33;8.00;99.90
4487;DHT22;2256;48.740;9.106;2023-12-29T04:35:00;8.00;99.90
4487;DHT22;2256;48.740;9.106;2023-12-29T04:37:27;8.10;99.90
4487;DHT22;2256;48.740;9.106;2023-12-29T04:39:55;8.10;99.90
4487;DHT22;2256;48.740;9.106;2023-12-29T04:42:23;8.00;99.90
4487;DHT22;2256;48.740;9.106;2023-12-29T04:44:50;8.00;99.90
4487;DHT22;2256;48.740;9.106;2023-12-29T04:47:17;7.90;99.90
4487;DHT22;2256;48.740;9.106;2023-12-29T04:49:43;7.80;99.90
4487;DHT22;2256;48.740;9.106;2023-12-29T04:52:10;7.90;99.90
4487;DHT22;2256;48.740;9.106;2023-12-29T04:54:37;8.00;99.90
4487;DHT22;2256;48.740;9.106;2023-12-29T04:57:04;7.90;99.90
4487;DHT22;2256;48.740;9.106;2023-12-29T04:59:33;7.80;99.90
4487;DHT22;2256;48.740;9.106;2023-12-29T05:02:00;7.80;99.90
4487;DHT22;2256;48.740;9.106;2023-12-29T05:04:26;7.80;99.90
4487;DHT22;2256;48.740;9.106;2023-12-29T05:06:53;7.80;99.90
4487;DHT22;2256;48.740;9.106;2023-12-29T05:09:21;7.80;99.90
4487;DHT22;2256;48.740;9.106;2023-12-29T05:11:48;7.80;99.90
4487;DHT22;2256;48.740;9.106;2023-12-29T05:14:15;8.00;99.90
4487;DHT22;2256;48.740;9.106;2023-12-29T05:16:44;8.00;99.90
4487;DHT22;2256;48.740;9.106;2023-12-29T05:19:11;8.00;99.90
4487;DHT22;2256;48.740;9.106;2023-12-29T05:21:38;8.00;99.90
4487;DHT22;2256;48.740;9.106;2023-12-29T05:24:05;8.10;99.90
4487;DHT22;2256;48.740;9.106;2023-12-29T05:26:31;8.10;99.90
4487;DHT22;2256;48.740;9.106;2023-12-29T05:28:58;8.10;99.90
4487;DHT22;2256;48.740;9.106;2023-12-29T05:31:25;8.20;99.90
4487;DHT22;2256;48.740;9.106;2023-12-29T05:33:55;8.30;99.90
4487;DHT22;2256;48.740;9.106;2023-12-29T05:36:22;8.30;99.90
4487;DHT22;2256;48.740;9.106;2023-12-29T05:38:48;8.30;99.90
4487;DHT22;2256;48.740;9.106;2023-12-29T05:41:15;8.30;99.90
4487;DHT22;2256;48.740;9.106;2023-12-29T05:43:42;8.20;99.90
4487;DHT22;2256;48.740;9.106;2023-12-29T05:46:09;8.20;99.90
4487;DHT22;2256;48.740;9.106;2023-12-29T05:48:37;8.20;99.90
4487;DHT22;2256;48.740;9.106;2023-12-29T05:51:08;8.10;99.90
4487;DHT22;2256;48.740;9.106;2023-12-29T05:53:35;8.10;99.90
4487;DHT22;2256;48.740;9.106;2023-12-29T05:56:02;8.10;99.90
4487;DHT22;2256;48.740;9.106;2023-12-29T05:58:29;8.20;99.90
4487;DHT22;2256;48.740;9.106;2023-12-29T06:00:56;8.20;99.90
4487;DHT22;2256;48.740;9.106;2023-12-29T06:03:24;8.20;99.90
4487;DHT22;2256;48.740;9.106;2023-12-29T06:05:51;8.20;99.90
4487;DHT22;2256;48.740;9.106;2023-12-29T06:08:19;8.20;99.90
4487;DHT22;2256;48.740;9.106;2023-12-29T06:10:46;8.20;99.90
4487;DHT22;2256;48.740;9.106;2023-12-29T06:13:13;8.20;99.90
4487;DHT22;2256;48.740;9.106;2023-12-29T06:15:40;8.20;99.90
4487;DHT22;2256;48.740;9.106;2023-12-29T06:18:07;8.20;99.90
4487;DHT22;2256;48.740;9.106;2023-12-29T06:20:34;8.20;99.90
4487;DHT22;2256;48.740;9.106;2023-12-29T06:23:01;8.20;99.90
4487;DHT22;2256;48.740;9.106;2023-12-29T06:25:30;8.20;99.90
4487;DHT22;2256;48.740;9.106;2023-12-29T06:27:58;8.30;99.90
4487;DHT22;2256;48.740;9.106;2023-12-29T06:30:25;8.30;99.90
4487;DHT22;2256;48.740;9.106;2023-12-29T06:32:53;8.30;99.90
4487;DHT22;2256;48.740;9.106;2023-12-29T06:35:20;8.30;99.90
4487;DHT22;2256;48.740;9.106;2023-12-29T06:37:48;8.30;99.90
4487;DHT22;2256;48.740;9.106;2023-12-29T06:40:17;8.30;99.90
4487;DHT22;2256;48.740;9.106;2023-12-29T06:42:46;8.30;99.90
4487;DHT22;2256;48.740;9.106;2023-12-29T06:45:12;8.20;99.90
4487;DHT22;2256;48.740;9.106;2023-12-29T06:47:40;8.30;99.90
4487;DHT22;2256;48.740;9.106;2023-12-29T06:50:07;8.30;99.90
4487;DHT22;2256;48.740;9.106;2023-12-29T06:52:38;8.30;99.90
4487;DHT22;2256;48.740;9.106;2023-12-29T06:55:06;8.30;99.90
4487;DHT22;2256;48.740;9.106;2023-12-29T06:57:33;8.20;99.90
4487;DHT22;2256;48.740;9.106;2023-12-29T07:00:01;8.20;99.90
4487;DHT22;2256;48.740;9.106;2023-12-29T07:02:28;8.10;99.90
4487;DHT22;2256;48.740;9.106;2023-12-29T07:04:55;8.20;99.90
4487;DHT22;2256;48.740;9.106;2023-12-29T07:07:22;8.20;99.90
4487;DHT22;2256;48.740;9.106;2023-12-29T07:09:49;8.20;99.90
4487;DHT22;2256;48.740;9.106;2023-12-29T07:12:16;8.20;99.90
4487;DHT22;2256;48.740;9.106;2023-12-29T07:14:43;8.20;99.90
4487;DHT22;2256;48.740;9.106;2023-12-29T07:17:11;8.20;99.90
4487;DHT22;2256;48.740;9.106;2023-12-29T07:19:38;8.30;99.90
4487;DHT22;2256;48.740;9.106;2023-12-29T07:22:05;8.30;99.90
4487;DHT22;2256;48.740;9.106;2023-12-29T07:24:34;8.30;99.90
4487;DHT22;2256;48.740;9.106;2023-12-29T07:27:00;8.40;99.90
4487;DHT22;2256;48.740;9.106;2023-12-29T07:29:27;8.30;99.90
4487;DHT22;2256;48.740;9.106;2023-12-29T07:31:54;8.30;99.90
4487;DHT22;2256;48.740;9.106;2023-12-29T07:34:23;8.30;99.90
4487;DHT22;2256;48.740;9.106;2023-12-29T07:36:50;8.20;99.90
4487;DHT22;2256;48.740;9.106;2023-12-29T07:39:18;8.20;99.90
4487;DHT22;2256;48.740;9.106;2023-12-29T07:41:44;8.30;99.90
4487;DHT22;2256;48.740;9.106;2023-12-29T07:44:13;8.40;99.90
4487;DHT22;2256;48.740;9.106;2023-12-29T07:46:40;8.40;99.90
4487;DHT22;2256;48.740;9.106;2023-12-29T07:49:07;8.50;99.90
4487;DHT22;2256;48.740;9.106;2023-12-29T07:51:39;8.40;99.90
4487;DHT22;2256;48.740;9.106;2023-12-29T07:54:06;8.50;99.90
4487;DHT22;2256;48.740;9.106;2023-12-29T07:56:32;8.60;99.90
4487;DHT22;2256;48.740;9.106;2023-12-29T07:59:00;8.60;99.90
4487;DHT22;2256;48.740;9.106;2023-12-29T08:01:26;8.60;99.90
4487;DHT22;2256;48.740;9.106;2023-12-29T08:03:53;8.60;99.90
4487;DHT22;2256;48.740;9.106;2023-12-29T08:06:20;8.60;99.90
4487;DHT22;2256;48.740;9.106;2023-12-29T08:08:48;8.60;99.90
4487;DHT22;2256;48.740;9.106;2023-12-29T08:11:15;8.80;99.90
4487;DHT22;2256;48.740;9.106;2023-12-29T08:13:44;8.70;99.90
4487;DHT22;2256;48.740;9.106;2023-12-29T08:16:11;8.80;99.90
4487;DHT22;2256;48.740;9.106;2023-12-29T08:18:38;8.80;99.90
4487;DHT22;2256;48.740;9.106;2023-12-29T08:21:05;8.90;99.90
4487;DHT22;2256;48.740;9.106;2023-12-29T08:23:31;8.80;99.90
4487;DHT22;2256;48.740;9.106;2023-12-29T08:25:59;8.80;99.90
4487;DHT22;2256;48.740;9.106;2023-12-29T08:28:29;8.80;99.90
4487;DHT22;2256;48.740;9.106;2023-12-29T08:30:55;8.80;99.90
4487;DHT22;2256;48.740;9.106;2023-12-29T08:33:22;8.90;99.90
4487;DHT22;2256;48.740;9.106;2023-12-29T08:35:49;8.80;99.90
4487;DHT22;2256;48.740;9.106;2023-12-29T08:38:16;8.80;99.90
4487;DHT22;2256;48.740;9.106;2023-12-29T08:40:43;8.90;99.90
4487;DHT22;2256;48.740;9.106;2023-12-29T08:43:12;9.00;99.90
4487;DHT22;2256;48.740;9.106;2023-12-29T08:45:39;9.00;99.90
4487;DHT22;2256;48.740;9.106;2023-12-29T08:48:07;9.10;99.90
4487;DHT22;2256;48.740;9.106;2023-12-29T08:50:34;9.10;99.90
4487;DHT22;2256;48.740;9.106;2023-12-29T08:53:00;9.00;99.90
4487;DHT22;2256;48.740;9.106;2023-12-29T08:55:27;9.10;99.90
4487;DHT22;2256;48.740;9.106;2023-12-29T08:57:54;9.10;99.90
4487;DHT22;2256;48.740;9.106;2023-12-29T09:00:22;9.10;99.90
4487;DHT22;2256;48.740;9.106;2023-12-29T09:02:49;9.10;99.90
4487;DHT22;2256;48.740;9.106;2023-12-29T09:05:17;9.00;99.90
4487;DHT22;2256;48.740;9.106;2023-12-29T09:07:44;9.00;99.90
4487;DHT22;2256;48.740;9.106;2023-12-29T09:10:11;9.00;99.90
4487;DHT22;2256;48.740;9.106;2023-12-29T09:12:38;9.00;99.90
4487;DHT22;2256;48.740;9.106;2023-12-29T09:15:06;9.20;99.90
4487;DHT22;2256;48.740;9.106;2023-12-29T09:17:34;8.90;99.90
4487;DHT22;2256;48.740;9.106;2023-12-29T09:20:01;9.00;99.90
4487;DHT22;2256;48.740;9.106;2023-12-29T09:22:28;9.10;99.90
4487;DHT22;2256;48.740;9.106;2023-12-29T09:24:55;9.30;99.90
4487;DHT22;2256;48.740;9.106;2023-12-29T09:27:22;9.50;99.90
4487;DHT22;2256;48.740;9.106;2023-12-29T09:29:49;9.70;99.90
4487;DHT22;2256;48.740;9.106;2023-12-29T09:32:17;9.90;99.90
4487;DHT22;2256;48.740;9.106;2023-12-29T09:34:45;9.90;99.90
4487;DHT22;2256;48.740;9.106;2023-12-29T09:37:12;9.90;99.90
4487;DHT22;2256;48.740;9.106;2023-12-29T09:39:39;9.90;99.90
4487;DHT22;2256;48.740;9.106;2023-12-29T09:42:08;10.00;99.90
4487;DHT22;2256;48.740;9.106;2023-12-29T09:44:36;10.00;99.90
4487;DHT22;2256;48.740;9.106;2023-12-29T09:47:04;10.10;99.90
4487;DHT22;2256;48.740;9.106;2023-12-29T09:49:35;10.10;99.90
4487;DHT22;2256;48.740;9.106;2023-12-29T09:52:07;10.00;99.90
4487;DHT22;2256;48.740;9.106;2023-12-29T09:54:35;10.10;99.90
4487;DHT22;2256;48.740;9.106;2023-12-29T09:57:04;10.00;99.90
4487;DHT22;2256;48.740;9.106;2023-12-29T09:59:33;10.00;99.90
4487;DHT22;2256;48.740;9.106;2023-12-29T10:02:02;9.90;99.90
4487;DHT22;2256;48.740;9.106;2023-12-29T10:04:31;9.90;99.90
4487;DHT22;2256;48.740;9.106;2023-12-29T10:07:02;9.80;99.90
4487;DHT22;2256;48.740;9.106;2023-12-29T10:09:33;9.90;99.90
4487;DHT22;2256;48.740;9.106;2023-12-29T10:12:02;9.90;99.90
4487;DHT22;2256;48.740;9.106;2023-12-29T10:14:36;10.20;99.90
4487;DHT22;2256;48.740;9.106;2023-12-29T10:17:19;10.40;99.90
4487;DHT22;2256;48.740;9.106;2023-12-29T10:19:58;10.40;99.90
4487;DHT22;2256;48.740;9.106;2023-12-29T10:25:14;10.50;99.90
4487;DHT22;2256;48.740;9.106;2023-12-29T10:27:41;10.40;99.90
4487;DHT22;2256;48.740;9.106;2023-12-29T10:30:10;10.40;99.90
4487;DHT22;2256;48.740;9.106;2023-12-29T10:32:39;10.40;99.90
4487;DHT22;2256;48.740;9.106;2023-12-29T10:35:09;10.40;99.90
4487;DHT22;2256;48.740;9.106;2023-12-29T10:37:37;10.50;99.90
4487;DHT22;2256;48.740;9.106;2023-12-29T10:40:07;10.70;99.90
4487;DHT22;2256;48.740;9.106;2023-12-29T10:42:35;10.90;99.90
4487;DHT22;2256;48.740;9.106;2023-12-29T10:45:17;10.90;99.90
4487;DHT22;2256;48.740;9.106;2023-12-29T10:47:44;10.90;99.90
4487;DHT22;2256;48.740;9.106;2023-12-29T10:50:11;11.00;99.90
4487;DHT22;2256;48.740;9.106;2023-12-29T10:52:38;11.00;99.90
4487;DHT22;2256;48.740;9.106;2023-12-29T10:55:07;10.90;99.90
4487;DHT22;2256;48.740;9.106;2023-12-29T10:57:36;11.10;99.90
4487;DHT22;2256;48.740;9.106;2023-12-29T11:00:04;11.10;99.90
4487;DHT22;2256;48.740;9.106;2023-12-29T11:02:33;11.20;99.90
4487;DHT22;2256;48.740;9.106;2023-12-29T11:05:05;11.20;99.90
4487;DHT22;2256;48.740;9.106;2023-12-29T11:07:34;11.20;99.90
4487;DHT22;2256;48.740;9.106;2023-12-29T11:10:05;11.20;99.90
4487;DHT22;2256;48.740;9.106;2023-12-29T11:12:34;11.20;99.90
4487;DHT22;2256;48.740;9.106;2023-12-29T11:15:04;11.30;99.90
4487;DHT22;2256;48.740;9.106;2023-12-29T11:17:32;11.30;99.90
4487;DHT22;2256;48.740;9.106;2023-12-29T11:19:59;11.40;99.90
4487;DHT22;2256;48.740;9.106;2023-12-29T11:22:29;11.50;99.90
4487;DHT22;2256;48.740;9.106;2023-12-29T11:24:56;11.50;99.90
4487;DHT22;2256;48.740;9.106;2023-12-29T11:27:27;11.60;99.90
4487;DHT22;2256;48.740;9.106;2023-12-29T11:29:55;11.60;99.90
4487;DHT22;2256;48.740;9.106;2023-12-29T11:32:30;11.70;99.90
4487;DHT22;2256;48.740;9.106;2023-12-29T11:35:05;11.70;99.90
4487;DHT22;2256;48.740;9.106;2023-12-29T11:37:52;11.80;99.90
4487;DHT22;2256;48.740;9.106;2023-12-29T11:40:28;11.90;99.90
4487;DHT22;2256;48.740;9.106;2023-12-29T11:43:00;11.80;99.90
4487;DHT22;2256;48.740;9.106;2023-12-29T11:45:31;11.90;99.90
4487;DHT22;2256;48.740;9.106;2023-12-29T11:48:01;11.90;99.90
4487;DHT22;2256;48.740;9.106;2023-12-29T11:50:30;12.00;99.90
4487;DHT22;2256;48.740;9.106;2023-12-29T11:52:57;12.00;99.90
4487;DHT22;2256;48.740;9.106;2023-12-29T11:55:29;12.00;99.90
4487;DHT22;2256;48.740;9.106;2023-12-29T11:57:56;11.90;99.90
4487;DHT22;2256;48.740;9.106;2023-12-29T12:00:45;11.90;99.90
4487;DHT22;2256;48.740;9.106;2023-12-29T12:03:18;11.90;99.90
4487;DHT22;2256;48.740;9.106;2023-12-29T12:05:47;12.00;99.90
4487;DHT22;2256;48.740;9.106;2023-12-29T12:08:30;12.00;99.90
4487;DHT22;2256;48.740;9.106;2023-12-29T12:10:58;12.00;99.90
4487;DHT22;2256;48.740;9.106;2023-12-29T12:13:46;11.90;99.90
4487;DHT22;2256;48.740;9.106;2023-12-29T12:16:47;11.70;99.90
4487;DHT22;2256;48.740;9.106;2023-12-29T12:19:15;11.60;99.90
4487;DHT22;2256;48.740;9.106;2023-12-29T12:21:45;11.50;99.90
4487;DHT22;2256;48.740;9.106;2023-12-29T12:24:13;11.60;99.90
4487;DHT22;2256;48.740;9.106;2023-12-29T12:26:40;11.50;99.90
4487;DHT22;2256;48.740;9.106;2023-12-29T12:29:08;11.50;99.90
4487;DHT22;2256;48.740;9.106;2023-12-29T12:31:35;11.60;99.90
4487;DHT22;2256;48.740;9.106;2023-12-29T12:34:02;11.60;99.90
4487;DHT22;2256;48.740;9.106;2023-12-29T12:36:31;11.60;99.90
4487;DHT22;2256;48.740;9.106;2023-12-29T12:39:00;11.60;99.90
4487;DHT22;2256;48.740;9.106;2023-12-29T12:41:28;11.40;99.90
4487;DHT22;2256;48.740;9.106;2023-12-29T12:44:01;11.40;99.90
4487;DHT22;2256;48.740;9.106;2023-12-29T12:46:34;11.40;99.90
4487;DHT22;2256;48.740;9.106;2023-12-29T12:49:02;11.50;99.90
4487;DHT22;2256;48.740;9.106;2023-12-29T12:51:31;11.70;99.90
4487;DHT22;2256;48.740;9.106;2023-12-29T12:53:59;11.90;99.90
4487;DHT22;2256;48.740;9.106;2023-12-29T12:56:27;12.20;99.90
4487;DHT22;2256;48.740;9.106;2023-12-29T12:58:55;12.40;99.90
4487;DHT22;2256;48.740;9.106;2023-12-29T13:01:23;12.20;99.90
4487;DHT22;2256;48.740;9.106;2023-12-29T13:03:51;12.30;99.90
4487;DHT22;2256;48.740;9.106;2023-12-29T13:06:18;12.20;99.90
4487;DHT22;2256;48.740;9.106;2023-12-29T13:08:48;12.30;99.90
4487;DHT22;2256;48.740;9.106;2023-12-29T13:11:18;12.40;99.90
4487;DHT22;2256;48.740;9.106;2023-12-29T13:13:47;12.40;99.90
4487;DHT22;2256;48.740;9.106;2023-12-29T13:16:16;12.50;99.90
4487;DHT22;2256;48.740;9.106;2023-12-29T13:18:43;12.40;99.90
4487;DHT22;2256;48.740;9.106;2023-12-29T13:21:17;12.20;99.90
4487;DHT22;2256;48.740;9.106;2023-12-29T13:23:44;12.10;99.90
4487;DHT22;2256;48.740;9.106;2023-12-29T13:26:11;12.00;99.90
4487;DHT22;2256;48.740;9.106;2023-12-29T13:28:38;12.00;99.90
4487;DHT22;2256;48.740;9.106;2023-12-29T13:31:09;11.90;99.90
4487;DHT22;2256;48.740;9.106;2023-12-29T13:33:45;11.80;99.90
4487;DHT22;2256;48.740;9.106;2023-12-29T13:36:22;11.80;99.90
4487;DHT22;2256;48.740;9.106;2023-12-29T13:38:52;11.70;99.90
4487;DHT22;2256;48.740;9.106;2023-12-29T13:41:21;11.90;99.90
4487;DHT22;2256;48.740;9.106;2023-12-29T13:43:50;11.80;99.90
4487;DHT22;2256;48.740;9.106;2023-12-29T13:46:18;11.80;99.90
4487;DHT22;2256;48.740;9.106;2023-12-29T13:48:47;11.80;99.90
4487;DHT22;2256;48.740;9.106;2023-12-29T13:51:22;11.70;99.90
4487;DHT22;2256;48.740;9.106;2023-12-29T13:53:50;11.70;99.90
4487;DHT22;2256;48.740;9.106;2023-12-29T13:56:23;11.70;99.90
4487;DHT22;2256;48.740;9.106;2023-12-29T13:58:52;11.60;99.90
4487;DHT22;2256;48.740;9.106;2023-12-29T14:01:18;11.60;99.90
4487;DHT22;2256;48.740;9.106;2023-12-29T14:03:47;11.60;99.90
4487;DHT22;2256;48.740;9.106;2023-12-29T14:06:26;11.50;99.90
4487;DHT22;2256;48.740;9.106;2023-12-29T14:08:54;11.60;99.90
4487;DHT22;2256;48.740;9.106;2023-12-29T14:11:21;11.60;99.90
4487;DHT22;2256;48.740;9.106;2023-12-29T14:13:51;11.60;99.90
4487;DHT22;2256;48.740;9.106;2023-12-29T14:16:18;11.60;99.90
4487;DHT22;2256;48.740;9.106;2023-12-29T14:18:53;11.60;99.90
4487;DHT22;2256;48.740;9.106;2023-12-29T14:21:27;11.50;99.90
4487;DHT22;2256;48.740;9.106;2023-12-29T14:24:09;11.50;99.90
4487;DHT22;2256;48.740;9.106;2023-12-29T14:26:38;11.50;99.90
4487;DHT22;2256;48.740;9.106;2023-12-29T14:29:06;11.50;99.90
4487;DHT22;2256;48.740;9.106;2023-12-29T14:31:37;11.50;99.90
4487;DHT22;2256;48.740;9.106;2023-12-29T14:34:04;11.50;99.90
4487;DHT22;2256;48.740;9.106;2023-12-29T14:36:33;11.40;99.90
4487;DHT22;2256;48.740;9.106;2023-12-29T14:39:01;11.40;99.90
4487;DHT22;2256;48.740;9.106;2023-12-29T14:41:29;11.40;99.90
4487;DHT22;2256;48.740;9.106;2023-12-29T14:43:56;11.30;99.90
4487;DHT22;2256;48.740;9.106;2023-12-29T14:46:24;11.30;99.90
4487;DHT22;2256;48.740;9.106;2023-12-29T14:48:52;11.30;99.90
4487;DHT22;2256;48.740;9.106;2023-12-29T14:51:19;11.30;99.90
4487;DHT22;2256;48.740;9.106;2023-12-29T14:53:48;11.20;99.90
4487;DHT22;2256;48.740;9.106;2023-12-29T14:56:16;11.30;99.90
4487;DHT22;2256;48.740;9.106;2023-12-29T14:58:43;11.30;99.90
4487;DHT22;2256;48.740;9.106;2023-12-29T15:01:11;11.20;99.90
4487;DHT22;2256;48.740;9.106;2023-12-29T15:03:38;11.10;99.90
4487;DHT22;2256;48.740;9.106;2023-12-29T15:06:06;11.00;99.90
4487;DHT22;2256;48.740;9.106;2023-12-29T15:08:33;10.90;99.90
4487;DHT22;2256;48.740;9.106;2023-12-29T15:11:04;11.00;99.90
4487;DHT22;2256;48.740;9.106;2023-12-29T15:13:31;10.90;99.90
4487;DHT22;2256;48.740;9.106;2023-12-29T15:16:01;10.90;99.90
4487;DHT22;2256;48.740;9.106;2023-12-29T15:18:28;10.90;99.90
4487;DHT22;2256;48.740;9.106;2023-12-29T15:20:55;10.90;99.90
4487;DHT22;2256;48.740;9.106;2023-12-29T15:23:22;10.70;99.90
4487;DHT22;2256;48.740;9.106;2023-12-29T15:25:50;10.60;99.90
4487;DHT22;2256;48.740;9.106;2023-12-29T15:28:19;10.60;99.90
4487;DHT22;2256;48.740;9.106;2023-12-29T15:30:47;10.50;99.90
4487;DHT22;2256;48.740;9.106;2023-12-29T15:33:15;10.40;99.90
4487;DHT22;2256;48.740;9.106;2023-12-29T15:35:43;10.40;99.90
4487;DHT22;2256;48.740;9.106;2023-12-29T15:38:10;10.40;99.90
4487;DHT22;2256;48.740;9.106;2023-12-29T15:40:37;10.30;99.90
4487;DHT22;2256;48.740;9.106;2023-12-29T15:43:06;10.30;99.90
4487;DHT22;2256;48.740;9.106;2023-12-29T15:45:36;10.20;99.90
4487;DHT22;2256;48.740;9.106;2023-12-29T15:48:04;10.20;99.90
4487;DHT22;2256;48.740;9.106;2023-12-29T15:50:31;10.20;99.90
4487;DHT22;2256;48.740;9.106;2023-12-29T15:52:58;10.20;99.90
4487;DHT22;2256;48.740;9.106;2023-12-29T15:55:25;10.20;99.90
4487;DHT22;2256;48.740;9.106;2023-12-29T15:57:52;10.00;99.90
4487;DHT22;2256;48.740;9.106;2023-12-29T16:00:18;9.90;99.90
4487;DHT22;2256;48.740;9.106;2023-12-29T16:02:47;9.80;99.90
4487;DHT22;2256;48.740;9.106;2023-12-29T16:05:14;9.80;99.90
4487;DHT22;2256;48.740;9.106;2023-12-29T16:07:41;9.70;99.90
4487;DHT22;2256;48.740;9.106;2023-12-29T16:10:08;9.60;99.90
4487;DHT22;2256;48.740;9.106;2023-12-29T16:12:35;9.40;99.90
4487;DHT22;2256;48.740;9.106;2023-12-29T16:15:02;9.40;99.90
4487;DHT22;2256;48.740;9.106;2023-12-29T16:17:30;9.30;99.90
4487;DHT22;2256;48.740;9.106;2023-12-29T16:19:58;9.40;99.90
4487;DHT22;2256;48.740;9.106;2023-12-29T16:22:24;9.40;99.90